Gibson Island, Maryland
Current Conditions -  °F | °C
As of 7:54 AM on Thursday 30 Oct 2014 (Local Time) from KNAK Reporting Station
Broken Clouds Broken Clouds  
Wind Chill: 47°   Ceiling: 7500
Heat Index: 49°   Visibility: 10mi
Dew Point: 42°   Wind: 5mph
Humidity: 77%   Direction: 280°W
Pressure: 30.03"   Gusts: NA
Location:  39.08°N, 76.43°W
Report Text: KNAK 301154Z AUTO 28004KT 10SM BKN075 09/06 A3003 RMK AO2 SLP171 T00940056 10106 20078 53013
Loading
Personal Weather Stations






























Interactive Weather Map
Tropical Storm Tracking
New forecast layout! Learn more

10-Day Weather Forecast

Advertisements
Track Severe Weather on mobile